sensor_id;sensor_type;location;lat;lon;timestamp;P1;durP1;ratioP1;P2;durP2;ratioP2
40339;SDS011;26044;50.864;20.658;2023-04-01T00:00:34;56.97;;;31.42;;
40339;SDS011;26044;50.864;20.658;2023-04-01T00:03:01;51.92;;;29.20;;
40339;SDS011;26044;50.864;20.658;2023-04-01T00:05:28;51.80;;;28.98;;
40339;SDS011;26044;50.864;20.658;2023-04-01T00:07:55;46.03;;;24.08;;
40339;SDS011;26044;50.864;20.658;2023-04-01T00:10:22;42.55;;;25.00;;
40339;SDS011;26044;50.864;20.658;2023-04-01T00:12:49;49.67;;;26.33;;
40339;SDS011;26044;50.864;20.658;2023-04-01T00:15:19;43.50;;;21.73;;
40339;SDS011;26044;50.864;20.658;2023-04-01T00:17:46;43.33;;;22.80;;
40339;SDS011;26044;50.864;20.658;2023-04-01T00:20:13;38.97;;;22.67;;
40339;SDS011;26044;50.864;20.658;2023-04-01T00:22:40;39.92;;;21.10;;
40339;SDS011;26044;50.864;20.658;2023-04-01T00:25:07;41.38;;;21.55;;
40339;SDS011;26044;50.864;20.658;2023-04-01T00:27:34;40.22;;;21.95;;
40339;SDS011;26044;50.864;20.658;2023-04-01T00:30:01;41.53;;;21.75;;
40339;SDS011;26044;50.864;20.658;2023-04-01T00:32:28;43.10;;;21.88;;
40339;SDS011;26044;50.864;20.658;2023-04-01T00:34:55;40.05;;;22.50;;
40339;SDS011;26044;50.864;20.658;2023-04-01T00:37:22;43.60;;;22.88;;
40339;SDS011;26044;50.864;20.658;2023-04-01T00:39:48;41.42;;;23.10;;
40339;SDS011;26044;50.864;20.658;2023-04-01T00:42:15;44.10;;;23.63;;
40339;SDS011;26044;50.864;20.658;2023-04-01T00:44:42;43.42;;;22.90;;
40339;SDS011;26044;50.864;20.658;2023-04-01T00:47:11;39.97;;;22.85;;
40339;SDS011;26044;50.864;20.658;2023-04-01T00:49:39;44.85;;;26.67;;
40339;SDS011;26044;50.864;20.658;2023-04-01T00:52:09;54.20;;;33.10;;
40339;SDS011;26044;50.864;20.658;2023-04-01T00:54:39;57.75;;;33.70;;
40339;SDS011;26044;50.864;20.658;2023-04-01T00:57:09;44.75;;;25.85;;
40339;SDS011;26044;50.864;20.658;2023-04-01T00:59:43;40.10;;;23.55;;
40339;SDS011;26044;50.864;20.658;2023-04-01T01:02:15;37.42;;;21.63;;
40339;SDS011;26044;50.864;20.658;2023-04-01T01:04:44;37.17;;;20.42;;
40339;SDS011;26044;50.864;20.658;2023-04-01T01:16:01;41.05;;;21.75;;
40339;SDS011;26044;50.864;20.658;2023-04-01T01:18:35;37.70;;;20.08;;
40339;SDS011;26044;50.864;20.658;2023-04-01T01:21:27;33.85;;;17.92;;
40339;SDS011;26044;50.864;20.658;2023-04-01T01:38:24;29.85;;;15.85;;
40339;SDS011;26044;50.864;20.658;2023-04-01T01:40:55;32.45;;;16.00;;
40339;SDS011;26044;50.864;20.658;2023-04-01T01:43:25;34.78;;;16.77;;
40339;SDS011;26044;50.864;20.658;2023-04-01T01:45:57;33.85;;;16.98;;
40339;SDS011;26044;50.864;20.658;2023-04-01T01:50:53;32.97;;;15.55;;
40339;SDS011;26044;50.864;20.658;2023-04-01T01:53:21;34.63;;;16.38;;
40339;SDS011;26044;50.864;20.658;2023-04-01T01:55:48;32.05;;;15.35;;
40339;SDS011;26044;50.864;20.658;2023-04-01T01:58:32;31.08;;;14.73;;
40339;SDS011;26044;50.864;20.658;2023-04-01T02:01:08;29.60;;;13.75;;
40339;SDS011;26044;50.864;20.658;2023-04-01T02:03:57;29.67;;;13.65;;
40339;SDS011;26044;50.864;20.658;2023-04-01T02:06:26;29.05;;;13.93;;
40339;SDS011;26044;50.864;20.658;2023-04-01T02:09:00;30.42;;;14.68;;
40339;SDS011;26044;50.864;20.658;2023-04-01T02:11:30;28.15;;;13.07;;
40339;SDS011;26044;50.864;20.658;2023-04-01T02:14:20;28.67;;;13.60;;
40339;SDS011;26044;50.864;20.658;2023-04-01T02:17:04;27.27;;;12.75;;
40339;SDS011;26044;50.864;20.658;2023-04-01T02:20:11;29.77;;;12.25;;
40339;SDS011;26044;50.864;20.658;2023-04-01T02:22:33;27.80;;;11.55;;
40339;SDS011;26044;50.864;20.658;2023-04-01T02:25:07;27.23;;;12.40;;
40339;SDS011;26044;50.864;20.658;2023-04-01T02:27:44;27.75;;;12.35;;
40339;SDS011;26044;50.864;20.658;2023-04-01T02:30:12;25.08;;;11.63;;
40339;SDS011;26044;50.864;20.658;2023-04-01T02:32:41;25.70;;;11.80;;
40339;SDS011;26044;50.864;20.658;2023-04-01T02:35:09;24.27;;;11.00;;
40339;SDS011;26044;50.864;20.658;2023-04-01T02:37:38;27.15;;;11.73;;
40339;SDS011;26044;50.864;20.658;2023-04-01T02:40:10;26.88;;;11.43;;
40339;SDS011;26044;50.864;20.658;2023-04-01T02:42:39;26.13;;;11.63;;
40339;SDS011;26044;50.864;20.658;2023-04-01T02:45:07;28.05;;;11.73;;
40339;SDS011;26044;50.864;20.658;2023-04-01T02:47:34;26.02;;;11.82;;
40339;SDS011;26044;50.864;20.658;2023-04-01T02:50:01;25.73;;;11.55;;
40339;SDS011;26044;50.864;20.658;2023-04-01T02:52:29;26.92;;;11.55;;
40339;SDS011;26044;50.864;20.658;2023-04-01T02:54:56;25.48;;;11.10;;
40339;SDS011;26044;50.864;20.658;2023-04-01T02:57:24;25.58;;;11.25;;
40339;SDS011;26044;50.864;20.658;2023-04-01T02:59:51;22.38;;;10.63;;
40339;SDS011;26044;50.864;20.658;2023-04-01T03:02:19;23.63;;;10.43;;
40339;SDS011;26044;50.864;20.658;2023-04-01T03:04:45;27.35;;;12.30;;
40339;SDS011;26044;50.864;20.658;2023-04-01T03:07:12;26.38;;;12.32;;
40339;SDS011;26044;50.864;20.658;2023-04-01T03:09:39;24.98;;;11.77;;
40339;SDS011;26044;50.864;20.658;2023-04-01T03:12:06;26.40;;;12.43;;
40339;SDS011;26044;50.864;20.658;2023-04-01T03:14:33;26.92;;;12.10;;
40339;SDS011;26044;50.864;20.658;2023-04-01T03:17:00;27.67;;;13.40;;
40339;SDS011;26044;50.864;20.658;2023-04-01T03:19:27;28.55;;;13.48;;
40339;SDS011;26044;50.864;20.658;2023-04-01T03:21:55;28.05;;;13.30;;
40339;SDS011;26044;50.864;20.658;2023-04-01T03:24:21;27.60;;;12.23;;
40339;SDS011;26044;50.864;20.658;2023-04-01T03:26:48;28.45;;;13.07;;
40339;SDS011;26044;50.864;20.658;2023-04-01T03:29:15;27.45;;;13.40;;
40339;SDS011;26044;50.864;20.658;2023-04-01T03:31:42;28.27;;;13.38;;
40339;SDS011;26044;50.864;20.658;2023-04-01T03:34:09;29.98;;;13.52;;
40339;SDS011;26044;50.864;20.658;2023-04-01T03:36:36;29.27;;;13.02;;
40339;SDS011;26044;50.864;20.658;2023-04-01T03:39:03;28.38;;;13.48;;
40339;SDS011;26044;50.864;20.658;2023-04-01T03:41:31;28.48;;;12.95;;
40339;SDS011;26044;50.864;20.658;2023-04-01T03:43:58;27.40;;;13.10;;
40339;SDS011;26044;50.864;20.658;2023-04-01T03:46:25;30.15;;;13.52;;
40339;SDS011;26044;50.864;20.658;2023-04-01T03:48:52;30.08;;;13.63;;
40339;SDS011;26044;50.864;20.658;2023-04-01T03:51:19;29.73;;;13.55;;
40339;SDS011;26044;50.864;20.658;2023-04-01T03:53:49;29.65;;;13.35;;
40339;SDS011;26044;50.864;20.658;2023-04-01T03:56:16;27.52;;;13.05;;
40339;SDS011;26044;50.864;20.658;2023-04-01T03:58:43;31.40;;;14.05;;
40339;SDS011;26044;50.864;20.658;2023-04-01T04:01:14;28.85;;;13.27;;
40339;SDS011;26044;50.864;20.658;2023-04-01T04:03:47;28.73;;;12.95;;
40339;SDS011;26044;50.864;20.658;2023-04-01T04:06:16;28.65;;;12.32;;
40339;SDS011;26044;50.864;20.658;2023-04-01T04:08:44;28.88;;;13.05;;
40339;SDS011;26044;50.864;20.658;2023-04-01T04:11:12;30.88;;;14.05;;
40339;SDS011;26044;50.864;20.658;2023-04-01T04:13:40;30.13;;;13.32;;
40339;SDS011;26044;50.864;20.658;2023-04-01T04:16:08;27.65;;;12.35;;
40339;SDS011;26044;50.864;20.658;2023-04-01T04:18:36;25.38;;;13.20;;
40339;SDS011;26044;50.864;20.658;2023-04-01T04:21:05;27.40;;;12.18;;
40339;SDS011;26044;50.864;20.658;2023-04-01T04:23:32;29.15;;;13.38;;
40339;SDS011;26044;50.864;20.658;2023-04-01T04:26:00;27.52;;;12.18;;
40339;SDS011;26044;50.864;20.658;2023-04-01T04:28:32;26.10;;;12.07;;
40339;SDS011;26044;50.864;20.658;2023-04-01T04:31:00;30.33;;;13.35;;
40339;SDS011;26044;50.864;20.658;2023-04-01T04:33:27;24.90;;;10.73;;
40339;SDS011;26044;50.864;20.658;2023-04-01T04:35:55;23.85;;;11.38;;
40339;SDS011;26044;50.864;20.658;2023-04-01T04:38:22;26.60;;;12.02;;
40339;SDS011;26044;50.864;20.658;2023-04-01T04:40:49;27.08;;;12.18;;
40339;SDS011;26044;50.864;20.658;2023-04-01T04:43:16;28.80;;;12.32;;
40339;SDS011;26044;50.864;20.658;2023-04-01T04:45:44;28.60;;;13.02;;
40339;SDS011;26044;50.864;20.658;2023-04-01T04:48:12;28.73;;;12.23;;
40339;SDS011;26044;50.864;20.658;2023-04-01T04:50:44;26.52;;;12.23;;
40339;SDS011;26044;50.864;20.658;2023-04-01T04:53:12;26.60;;;12.27;;
40339;SDS011;26044;50.864;20.658;2023-04-01T04:55:45;25.07;;;11.93;;
40339;SDS011;26044;50.864;20.658;2023-04-01T04:58:17;23.52;;;10.82;;
40339;SDS011;26044;50.864;20.658;2023-04-01T05:00:44;24.05;;;10.88;;
40339;SDS011;26044;50.864;20.658;2023-04-01T05:03:11;24.02;;;10.85;;
40339;SDS011;26044;50.864;20.658;2023-04-01T05:05:39;24.38;;;10.00;;
40339;SDS011;26044;50.864;20.658;2023-04-01T05:08:06;27.00;;;10.48;;
40339;SDS011;26044;50.864;20.658;2023-04-01T05:10:33;23.85;;;10.48;;
40339;SDS011;26044;50.864;20.658;2023-04-01T05:12:59;24.17;;;10.88;;
40339;SDS011;26044;50.864;20.658;2023-04-01T05:15:26;22.23;;;10.25;;
40339;SDS011;26044;50.864;20.658;2023-04-01T05:17:53;25.40;;;10.80;;
40339;SDS011;26044;50.864;20.658;2023-04-01T05:20:20;24.17;;;11.20;;
40339;SDS011;26044;50.864;20.658;2023-04-01T05:22:49;24.25;;;10.43;;
40339;SDS011;26044;50.864;20.658;2023-04-01T05:25:16;24.95;;;10.50;;
40339;SDS011;26044;50.864;20.658;2023-04-01T05:27:44;24.05;;;10.68;;
40339;SDS011;26044;50.864;20.658;2023-04-01T05:30:11;23.23;;;9.43;;
40339;SDS011;26044;50.864;20.658;2023-04-01T05:32:40;23.75;;;10.52;;
40339;SDS011;26044;50.864;20.658;2023-04-01T05:35:07;22.05;;;10.50;;
40339;SDS011;26044;50.864;20.658;2023-04-01T05:37:36;20.30;;;9.82;;
40339;SDS011;26044;50.864;20.658;2023-04-01T05:40:03;23.98;;;9.65;;
40339;SDS011;26044;50.864;20.658;2023-04-01T05:42:31;25.48;;;10.57;;
40339;SDS011;26044;50.864;20.658;2023-04-01T05:44:57;22.35;;;8.98;;
40339;SDS011;26044;50.864;20.658;2023-04-01T05:47:24;20.38;;;9.35;;
40339;SDS011;26044;50.864;20.658;2023-04-01T05:49:51;22.98;;;9.90;;
40339;SDS011;26044;50.864;20.658;2023-04-01T05:52:18;23.77;;;10.15;;
40339;SDS011;26044;50.864;20.658;2023-04-01T05:54:45;23.58;;;10.18;;
40339;SDS011;26044;50.864;20.658;2023-04-01T05:57:14;21.70;;;8.98;;
40339;SDS011;26044;50.864;20.658;2023-04-01T05:59:41;21.92;;;9.20;;
40339;SDS011;26044;50.864;20.658;2023-04-01T06:02:09;24.08;;;9.73;;
40339;SDS011;26044;50.864;20.658;2023-04-01T06:04:39;27.05;;;10.68;;
40339;SDS011;26044;50.864;20.658;2023-04-01T06:07:16;22.92;;;9.57;;
40339;SDS011;26044;50.864;20.658;2023-04-01T06:09:44;23.15;;;10.20;;
40339;SDS011;26044;50.864;20.658;2023-04-01T06:15:00;22.70;;;10.50;;
40339;SDS011;26044;50.864;20.658;2023-04-01T06:26:08;19.52;;;9.05;;
40339;SDS011;26044;50.864;20.658;2023-04-01T06:29:26;23.92;;;9.23;;
40339;SDS011;26044;50.864;20.658;2023-04-01T06:32:15;22.27;;;9.60;;
40339;SDS011;26044;50.864;20.658;2023-04-01T06:43:18;23.10;;;9.05;;
40339;SDS011;26044;50.864;20.658;2023-04-01T06:57:48;24.58;;;9.95;;
40339;SDS011;26044;50.864;20.658;2023-04-01T07:00:27;21.83;;;9.05;;
40339;SDS011;26044;50.864;20.658;2023-04-01T07:03:18;22.08;;;8.88;;
40339;SDS011;26044;50.864;20.658;2023-04-01T07:06:01;24.20;;;8.82;;
40339;SDS011;26044;50.864;20.658;2023-04-01T07:08:31;22.50;;;8.65;;
40339;SDS011;26044;50.864;20.658;2023-04-01T07:11:04;21.10;;;8.82;;
40339;SDS011;26044;50.864;20.658;2023-04-01T07:22:00;20.52;;;8.65;;
40339;SDS011;26044;50.864;20.658;2023-04-01T07:24:37;22.05;;;9.13;;
40339;SDS011;26044;50.864;20.658;2023-04-01T07:27:11;20.38;;;8.60;;
40339;SDS011;26044;50.864;20.658;2023-04-01T07:29:39;23.45;;;8.25;;
40339;SDS011;26044;50.864;20.658;2023-04-01T07:32:09;24.33;;;8.73;;
40339;SDS011;26044;50.864;20.658;2023-04-01T07:40:39;20.75;;;9.05;;
40339;SDS011;26044;50.864;20.658;2023-04-01T07:49:45;21.80;;;9.77;;
40339;SDS011;26044;50.864;20.658;2023-04-01T07:57:02;23.25;;;9.85;;
40339;SDS011;26044;50.864;20.658;2023-04-01T08:07:22;23.73;;;11.20;;
40339;SDS011;26044;50.864;20.658;2023-04-01T08:10:04;24.42;;;10.57;;
40339;SDS011;26044;50.864;20.658;2023-04-01T08:12:58;22.58;;;10.82;;
40339;SDS011;26044;50.864;20.658;2023-04-01T08:15:37;24.90;;;10.90;;
40339;SDS011;26044;50.864;20.658;2023-04-01T08:21:28;27.45;;;11.43;;
40339;SDS011;26044;50.864;20.658;2023-04-01T08:24:06;22.33;;;10.68;;
40339;SDS011;26044;50.864;20.658;2023-04-01T08:26:48;24.88;;;10.82;;
40339;SDS011;26044;50.864;20.658;2023-04-01T08:29:29;24.42;;;10.23;;
40339;SDS011;26044;50.864;20.658;2023-04-01T08:32:22;22.95;;;9.73;;
40339;SDS011;26044;50.864;20.658;2023-04-01T08:35:37;23.17;;;10.18;;
40339;SDS011;26044;50.864;20.658;2023-04-01T08:37:49;26.10;;;9.65;;
40339;SDS011;26044;50.864;20.658;2023-04-01T08:48:14;21.33;;;9.70;;
40339;SDS011;26044;50.864;20.658;2023-04-01T09:08:05;20.73;;;8.20;;
40339;SDS011;26044;50.864;20.658;2023-04-01T09:22:05;16.33;;;7.38;;
40339;SDS011;26044;50.864;20.658;2023-04-01T09:27:27;19.35;;;7.88;;
40339;SDS011;26044;50.864;20.658;2023-04-01T09:32:41;29.45;;;10.55;;
40339;SDS011;26044;50.864;20.658;2023-04-01T09:38:23;27.90;;;10.68;;
40339;SDS011;26044;50.864;20.658;2023-04-01T09:41:20;19.52;;;8.57;;
40339;SDS011;26044;50.864;20.658;2023-04-01T09:44:03;21.48;;;8.52;;
40339;SDS011;26044;50.864;20.658;2023-04-01T09:49:50;23.27;;;9.40;;
40339;SDS011;26044;50.864;20.658;2023-04-01T10:01:22;18.73;;;8.45;;
40339;SDS011;26044;50.864;20.658;2023-04-01T10:24:01;12.88;;;5.90;;
40339;SDS011;26044;50.864;20.658;2023-04-01T10:27:03;12.23;;;5.60;;
40339;SDS011;26044;50.864;20.658;2023-04-01T10:46:24;12.60;;;5.38;;
40339;SDS011;26044;50.864;20.658;2023-04-01T10:52:13;13.23;;;6.18;;
40339;SDS011;26044;50.864;20.658;2023-04-01T10:54:50;11.73;;;5.53;;
40339;SDS011;26044;50.864;20.658;2023-04-01T10:57:48;9.40;;;4.07;;
40339;SDS011;26044;50.864;20.658;2023-04-01T11:12:46;5.65;;;2.47;;
40339;SDS011;26044;50.864;20.658;2023-04-01T11:35:38;7.72;;;2.90;;
40339;SDS011;26044;50.864;20.658;2023-04-01T11:41:43;5.85;;;2.55;;
40339;SDS011;26044;50.864;20.658;2023-04-01T11:44:22;3.67;;;2.13;;
40339;SDS011;26044;50.864;20.658;2023-04-01T11:47:10;4.65;;;2.80;;
40339;SDS011;26044;50.864;20.658;2023-04-01T11:50:08;3.92;;;2.53;;
40339;SDS011;26044;50.864;20.658;2023-04-01T11:52:50;5.95;;;2.15;;
40339;SDS011;26044;50.864;20.658;2023-04-01T12:12:10;8.88;;;2.75;;
40339;SDS011;26044;50.864;20.658;2023-04-01T12:14:44;5.03;;;2.60;;
40339;SDS011;26044;50.864;20.658;2023-04-01T12:22:43;5.25;;;2.72;;
40339;SDS011;26044;50.864;20.658;2023-04-01T12:25:22;7.38;;;2.72;;
40339;SDS011;26044;50.864;20.658;2023-04-01T12:31:22;3.42;;;1.83;;
40339;SDS011;26044;50.864;20.658;2023-04-01T12:33:59;3.33;;;1.70;;
40339;SDS011;26044;50.864;20.658;2023-04-01T12:39:36;3.58;;;1.20;;
40339;SDS011;26044;50.864;20.658;2023-04-01T12:45:05;4.25;;;1.60;;
40339;SDS011;26044;50.864;20.658;2023-04-01T12:53:49;8.50;;;1.70;;
40339;SDS011;26044;50.864;20.658;2023-04-01T13:10:47;5.18;;;2.05;;
40339;SDS011;26044;50.864;20.658;2023-04-01T13:15:58;5.22;;;2.10;;
40339;SDS011;26044;50.864;20.658;2023-04-01T13:18:36;6.50;;;2.30;;
40339;SDS011;26044;50.864;20.658;2023-04-01T13:24:05;6.95;;;2.20;;
40339;SDS011;26044;50.864;20.658;2023-04-01T13:29:31;5.00;;;2.08;;
40339;SDS011;26044;50.864;20.658;2023-04-01T13:35:10;5.53;;;1.77;;
40339;SDS011;26044;50.864;20.658;2023-04-01T13:38:17;6.65;;;2.15;;
40339;SDS011;26044;50.864;20.658;2023-04-01T13:44:22;5.88;;;2.08;;
40339;SDS011;26044;50.864;20.658;2023-04-01T13:49:52;5.78;;;2.03;;
40339;SDS011;26044;50.864;20.658;2023-04-01T13:55:27;6.40;;;2.70;;
40339;SDS011;26044;50.864;20.658;2023-04-01T13:58:24;7.00;;;2.97;;
40339;SDS011;26044;50.864;20.658;2023-04-01T14:01:17;8.50;;;3.22;;
40339;SDS011;26044;50.864;20.658;2023-04-01T14:12:39;6.75;;;2.92;;
40339;SDS011;26044;50.864;20.658;2023-04-01T14:21:02;5.82;;;2.78;;
40339;SDS011;26044;50.864;20.658;2023-04-01T14:32:02;5.82;;;2.63;;
40339;SDS011;26044;50.864;20.658;2023-04-01T14:49:36;4.72;;;2.40;;
40339;SDS011;26044;50.864;20.658;2023-04-01T14:52:11;6.35;;;2.63;;
40339;SDS011;26044;50.864;20.658;2023-04-01T14:54:49;5.90;;;2.60;;
40339;SDS011;26044;50.864;20.658;2023-04-01T15:00:00;5.80;;;2.80;;
40339;SDS011;26044;50.864;20.658;2023-04-01T15:05:16;8.38;;;2.67;;
40339;SDS011;26044;50.864;20.658;2023-04-01T15:16:03;10.02;;;2.72;;
40339;SDS011;26044;50.864;20.658;2023-04-01T15:25:01;7.63;;;2.95;;
40339;SDS011;26044;50.864;20.658;2023-04-01T15:33:03;6.50;;;2.28;;
40339;SDS011;26044;50.864;20.658;2023-04-01T15:41:02;13.65;;;5.93;;
40339;SDS011;26044;50.864;20.658;2023-04-01T15:49:15;13.70;;;5.18;;
40339;SDS011;26044;50.864;20.658;2023-04-01T16:11:56;21.75;;;8.52;;
40339;SDS011;26044;50.864;20.658;2023-04-01T16:14:50;19.50;;;8.27;;
40339;SDS011;26044;50.864;20.658;2023-04-01T16:17:45;19.52;;;7.50;;
40339;SDS011;26044;50.864;20.658;2023-04-01T16:20:27;43.83;;;26.70;;
40339;SDS011;26044;50.864;20.658;2023-04-01T16:25:49;20.30;;;8.88;;
40339;SDS011;26044;50.864;20.658;2023-04-01T16:28:32;39.13;;;21.10;;
40339;SDS011;26044;50.864;20.658;2023-04-01T16:31:10;33.92;;;21.25;;
40339;SDS011;26044;50.864;20.658;2023-04-01T16:36:24;22.17;;;8.77;;
40339;SDS011;26044;50.864;20.658;2023-04-01T16:41:49;26.92;;;13.32;;
40339;SDS011;26044;50.864;20.658;2023-04-01T16:44:24;31.50;;;16.45;;
40339;SDS011;26044;50.864;20.658;2023-04-01T16:46:58;35.95;;;19.08;;
40339;SDS011;26044;50.864;20.658;2023-04-01T16:49:37;34.75;;;17.27;;
40339;SDS011;26044;50.864;20.658;2023-04-01T16:52:35;21.60;;;9.45;;
40339;SDS011;26044;50.864;20.658;2023-04-01T16:58:40;19.13;;;8.35;;
40339;SDS011;26044;50.864;20.658;2023-04-01T17:01:23;20.88;;;10.27;;
40339;SDS011;26044;50.864;20.658;2023-04-01T17:04:00;22.20;;;9.50;;
40339;SDS011;26044;50.864;20.658;2023-04-01T17:06:40;23.20;;;10.35;;
40339;SDS011;26044;50.864;20.658;2023-04-01T17:14:39;23.23;;;11.23;;
40339;SDS011;26044;50.864;20.658;2023-04-01T17:17:41;23.77;;;11.02;;
40339;SDS011;26044;50.864;20.658;2023-04-01T17:23:17;32.20;;;17.92;;
40339;SDS011;26044;50.864;20.658;2023-04-01T17:25:58;31.00;;;17.00;;
40339;SDS011;26044;50.864;20.658;2023-04-01T17:31:35;34.70;;;18.60;;
40339;SDS011;26044;50.864;20.658;2023-04-01T17:34:16;36.40;;;20.45;;
40339;SDS011;26044;50.864;20.658;2023-04-01T17:40:00;32.45;;;18.20;;
40339;SDS011;26044;50.864;20.658;2023-04-01T17:42:46;30.58;;;17.92;;
40339;SDS011;26044;50.864;20.658;2023-04-01T17:45:22;26.88;;;13.88;;
40339;SDS011;26044;50.864;20.658;2023-04-01T18:02:03;32.97;;;19.23;;
40339;SDS011;26044;50.864;20.658;2023-04-01T18:07:27;44.25;;;27.35;;
40339;SDS011;26044;50.864;20.658;2023-04-01T18:10:17;40.25;;;21.27;;
40339;SDS011;26044;50.864;20.658;2023-04-01T18:13:18;34.20;;;19.92;;
40339;SDS011;26044;50.864;20.658;2023-04-01T18:19:13;33.72;;;20.13;;
40339;SDS011;26044;50.864;20.658;2023-04-01T18:27:18;33.60;;;19.35;;
40339;SDS011;26044;50.864;20.658;2023-04-01T18:29:59;37.90;;;21.48;;
40339;SDS011;26044;50.864;20.658;2023-04-01T18:32:52;40.55;;;21.05;;
40339;SDS011;26044;50.864;20.658;2023-04-01T18:41:12;35.33;;;18.80;;
40339;SDS011;26044;50.864;20.658;2023-04-01T18:47:08;31.60;;;17.25;;
40339;SDS011;26044;50.864;20.658;2023-04-01T18:52:44;35.22;;;19.70;;
40339;SDS011;26044;50.864;20.658;2023-04-01T18:57:51;45.03;;;25.55;;
40339;SDS011;26044;50.864;20.658;2023-04-01T19:00:41;39.03;;;22.02;;
40339;SDS011;26044;50.864;20.658;2023-04-01T19:03:21;40.13;;;21.65;;
40339;SDS011;26044;50.864;20.658;2023-04-01T19:05:54;36.45;;;20.13;;
40339;SDS011;26044;50.864;20.658;2023-04-01T19:11:09;29.88;;;15.32;;
40339;SDS011;26044;50.864;20.658;2023-04-01T19:13:53;33.83;;;15.77;;
40339;SDS011;26044;50.864;20.658;2023-04-01T19:16:43;23.92;;;12.13;;
40339;SDS011;26044;50.864;20.658;2023-04-01T19:27:52;26.05;;;12.93;;
40339;SDS011;26044;50.864;20.658;2023-04-01T19:33:25;23.85;;;11.52;;
40339;SDS011;26044;50.864;20.658;2023-04-01T19:38:51;32.75;;;18.10;;
40339;SDS011;26044;50.864;20.658;2023-04-01T19:44:03;33.78;;;17.67;;
40339;SDS011;26044;50.864;20.658;2023-04-01T19:46:45;21.63;;;10.60;;
40339;SDS011;26044;50.864;20.658;2023-04-01T19:51:50;21.45;;;10.02;;
40339;SDS011;26044;50.864;20.658;2023-04-01T19:57:24;21.83;;;9.95;;
40339;SDS011;26044;50.864;20.658;2023-04-01T20:03:14;21.40;;;8.95;;
40339;SDS011;26044;50.864;20.658;2023-04-01T20:11:13;28.30;;;14.38;;
40339;SDS011;26044;50.864;20.658;2023-04-01T20:14:11;21.55;;;9.18;;
40339;SDS011;26044;50.864;20.658;2023-04-01T20:19:41;22.83;;;10.48;;
40339;SDS011;26044;50.864;20.658;2023-04-01T20:24:51;22.88;;;9.93;;
40339;SDS011;26044;50.864;20.658;2023-04-01T20:27:23;23.38;;;11.57;;
40339;SDS011;26044;50.864;20.658;2023-04-01T20:32:57;21.35;;;9.38;;
40339;SDS011;26044;50.864;20.658;2023-04-01T20:38:40;22.23;;;10.88;;
40339;SDS011;26044;50.864;20.658;2023-04-01T20:41:27;21.88;;;8.77;;
40339;SDS011;26044;50.864;20.658;2023-04-01T20:44:13;19.25;;;8.82;;
40339;SDS011;26044;50.864;20.658;2023-04-01T20:57:57;16.02;;;6.60;;
40339;SDS011;26044;50.864;20.658;2023-04-01T21:00:54;21.13;;;9.57;;
40339;SDS011;26044;50.864;20.658;2023-04-01T21:14:44;16.55;;;6.93;;
40339;SDS011;26044;50.864;20.658;2023-04-01T21:23:52;15.60;;;6.45;;
40339;SDS011;26044;50.864;20.658;2023-04-01T21:43:22;16.48;;;7.22;;
40339;SDS011;26044;50.864;20.658;2023-04-01T22:00:38;17.08;;;7.35;;
40339;SDS011;26044;50.864;20.658;2023-04-01T22:03:45;16.73;;;7.07;;
40339;SDS011;26044;50.864;20.658;2023-04-01T22:06:37;18.00;;;7.05;;
40339;SDS011;26044;50.864;20.658;2023-04-01T22:09:17;17.65;;;7.40;;
40339;SDS011;26044;50.864;20.658;2023-04-01T22:14:44;16.25;;;6.68;;
40339;SDS011;26044;50.864;20.658;2023-04-01T22:20:28;15.80;;;6.93;;
40339;SDS011;26044;50.864;20.658;2023-04-01T22:23:14;17.80;;;7.50;;
40339;SDS011;26044;50.864;20.658;2023-04-01T22:28:32;16.58;;;7.00;;
40339;SDS011;26044;50.864;20.658;2023-04-01T22:31:08;17.60;;;7.13;;
40339;SDS011;26044;50.864;20.658;2023-04-01T22:33:49;19.67;;;7.68;;
40339;SDS011;26044;50.864;20.658;2023-04-01T22:36:33;20.52;;;8.38;;
40339;SDS011;26044;50.864;20.658;2023-04-01T22:45:01;17.67;;;7.40;;
40339;SDS011;26044;50.864;20.658;2023-04-01T22:48:06;16.90;;;7.50;;
40339;SDS011;26044;50.864;20.658;2023-04-01T22:56:19;16.30;;;6.45;;
40339;SDS011;26044;50.864;20.658;2023-04-01T22:59:00;14.18;;;6.30;;
40339;SDS011;26044;50.864;20.658;2023-04-01T23:01:38;17.42;;;7.43;;
40339;SDS011;26044;50.864;20.658;2023-04-01T23:04:13;17.55;;;6.78;;
40339;SDS011;26044;50.864;20.658;2023-04-01T23:06:46;15.88;;;6.28;;
40339;SDS011;26044;50.864;20.658;2023-04-01T23:09:28;14.23;;;6.18;;
40339;SDS011;26044;50.864;20.658;2023-04-01T23:11:58;16.30;;;6.53;;
40339;SDS011;26044;50.864;20.658;2023-04-01T23:22:59;17.73;;;7.28;;
40339;SDS011;26044;50.864;20.658;2023-04-01T23:25:31;17.65;;;7.55;;
40339;SDS011;26044;50.864;20.658;2023-04-01T23:31:31;18.30;;;7.20;;
40339;SDS011;26044;50.864;20.658;2023-04-01T23:36:51;16.95;;;7.55;;
40339;SDS011;26044;50.864;20.658;2023-04-01T23:39:40;18.55;;;8.27;;
40339;SDS011;26044;50.864;20.658;2023-04-01T23:42:21;20.85;;;9.85;;
40339;SDS011;26044;50.864;20.658;2023-04-01T23:45:11;21.02;;;9.75;;
40339;SDS011;26044;50.864;20.658;2023-04-01T23:47:48;20.60;;;9.38;;
40339;SDS011;26044;50.864;20.658;2023-04-01T23:50:17;16.90;;;6.85;;
40339;SDS011;26044;50.864;20.658;2023-04-01T23:52:49;15.45;;;6.85;;
40339;SDS011;26044;50.864;20.658;2023-04-01T23:55:25;18.13;;;7.20;;
